Time;durP1;ratioP1;P1;durP2;ratioP2;P2;SDS_P1;SDS_P2;PMS_P1;PMS_P2;Temp;Humidity;BMP_temperature;BMP_pressure;BME280_temperature;BME280_humidity;BME280_pressure;Samples;Min_cycle;Max_cycle;Signal;HPM_P1;HPM_P2
2023/05/20 00:02:22;;;;;;;3.45;1.70;;;17.60;62.70;;;;;;10270919;28;20109;-55
2023/05/20 00:07:22;;;;;;;1.23;0.88;;;17.60;62.70;;;;;;10282167;28;20031;-54
2023/05/20 00:12:23;;;;;;;3.80;1.35;;;17.60;62.60;;;;;;10282529;28;20034;-54
2023/05/20 00:17:26;;;;;;;2.25;1.10;;;17.50;62.60;;;;;;10256339;28;20035;-54
2023/05/20 00:22:27;;;;;;;2.45;1.38;;;17.50;62.70;;;;;;10233476;29;20494;-54
2023/05/20 00:27:28;;;;;;;2.70;1.55;;;17.50;62.60;;;;;;10249880;28;20139;-53
2023/05/20 00:32:28;;;;;;;2.03;1.20;;;17.50;62.60;;;;;;10249764;28;20126;-55
2023/05/20 00:37:29;;;;;;;3.35;1.45;;;17.50;62.60;;;;;;10256033;28;20059;-54
2023/05/20 00:42:30;;;;;;;1.83;1.00;;;17.50;62.60;;;;;;10249351;29;20130;-55
2023/05/20 00:47:35;;;;;;;2.90;1.33;;;17.50;62.60;;;;;;10248894;28;20505;-55
2023/05/20 00:52:36;;;;;;;1.75;1.23;;;17.50;62.60;;;;;;10273204;28;20035;-54
2023/05/20 00:57:36;;;;;;;3.03;1.10;;;17.50;62.70;;;;;;10250112;28;20448;-55
2023/05/20 01:02:37;;;;;;;1.70;1.13;;;17.50;62.60;;;;;;10215482;28;20664;-55
2023/05/20 01:07:38;;;;;;;1.83;1.20;;;17.50;62.70;;;;;;10248446;28;20031;-54
2023/05/20 01:12:49;;;;;;;3.45;1.40;;;17.50;62.70;;;;;;10247906;28;20035;-54
2023/05/20 01:17:57;;;;;;;2.60;1.42;;;17.50;62.70;;;;;;10233326;28;20186;-54
2023/05/20 01:22:58;;;;;;;2.05;1.23;;;17.50;62.70;;;;;;10302441;28;20031;-55
2023/05/20 01:27:59;;;;;;;1.98;1.30;;;17.50;62.70;;;;;;10301281;28;20027;-55
2023/05/20 01:33:12;;;;;;;1.60;1.00;;;17.50;62.70;;;;;;10287375;28;20196;-55
2023/05/20 01:38:17;;;;;;;2.17;1.30;;;17.50;62.70;;;;;;10289435;28;20030;-53
2023/05/20 01:43:18;;;;;;;2.15;1.45;;;17.50;62.80;;;;;;10230486;29;20386;-54
2023/05/20 01:48:19;;;;;;;3.28;1.45;;;17.50;62.80;;;;;;10246703;29;20094;-53
2023/05/20 01:53:20;;;;;;;2.22;1.20;;;17.40;62.80;;;;;;10259307;28;20122;-54
2023/05/20 01:58:20;;;;;;;2.15;1.60;;;17.40;62.80;;;;;;10286604;28;20023;-53
2023/05/20 02:03:21;;;;;;;2.88;1.50;;;17.50;62.80;;;;;;10255101;28;20046;-56
2023/05/20 02:08:22;;;;;;;3.00;1.00;;;17.50;62.80;;;;;;10246076;28;20098;-54
2023/05/20 02:13:22;;;;;;;2.40;1.20;;;17.40;62.80;;;;;;10237529;28;20050;-55
2023/05/20 02:18:25;;;;;;;1.83;1.20;;;17.40;62.80;;;;;;10285722;28;20101;-55
2023/05/20 02:23:25;;;;;;;1.85;1.20;;;17.40;62.80;;;;;;10300347;28;20027;-55
2023/05/20 02:28:26;;;;;;;1.63;1.20;;;17.40;62.80;;;;;;10285417;28;20588;-53
2023/05/20 02:33:27;;;;;;;2.15;1.27;;;17.40;62.80;;;;;;10283664;28;20117;-55
2023/05/20 02:38:30;;;;;;;3.42;1.70;;;17.40;62.80;;;;;;10272267;28;20375;-54
2023/05/20 02:43:32;;;;;;;3.25;1.50;;;17.40;62.80;;;;;;10260672;28;20030;-55
2023/05/20 02:48:33;;;;;;;2.53;1.30;;;17.40;62.80;;;;;;10281364;28;20479;-55
2023/05/20 02:53:33;;;;;;;1.75;1.30;;;17.40;62.80;;;;;;10276719;28;20173;-55
2023/05/20 02:58:34;;;;;;;1.90;1.35;;;17.40;62.80;;;;;;10250320;28;20472;-54
2023/05/20 03:03:36;;;;;;;2.85;1.20;;;17.40;62.80;;;;;;10226699;28;20622;-54
2023/05/20 03:08:38;;;;;;;2.80;1.23;;;17.40;62.80;;;;;;10226672;29;20721;-53
2023/05/20 03:13:39;;;;;;;3.38;1.40;;;17.40;62.80;;;;;;10280667;28;20125;-55
2023/05/20 03:18:40;;;;;;;2.63;1.48;;;17.40;62.80;;;;;;10283693;28;20023;-54
2023/05/20 03:23:41;;;;;;;3.53;1.38;;;17.40;62.80;;;;;;10282974;28;20015;-54
2023/05/20 03:28:42;;;;;;;1.98;1.10;;;17.40;62.80;;;;;;10240668;29;20074;-55
2023/05/20 03:33:44;;;;;;;2.10;1.20;;;17.40;62.80;;;;;;10223379;28;20037;-53
2023/05/20 03:38:44;;;;;;;1.38;0.90;;;17.40;62.90;;;;;;10235981;29;20749;-54
2023/05/20 03:43:45;;;;;;;2.20;1.42;;;17.30;62.90;;;;;;10225981;29;20115;-54
2023/05/20 03:48:46;;;;;;;2.63;1.10;;;17.30;63.10;;;;;;10248446;28;20416;-53
2023/05/20 03:53:46;;;;;;;1.60;1.20;;;17.30;62.80;;;;;;10281808;28;20723;-54
2023/05/20 03:58:47;;;;;;;1.73;1.02;;;17.30;62.90;;;;;;10290911;28;20058;-55
2023/05/20 04:03:48;;;;;;;2.00;1.30;;;17.30;62.90;;;;;;10293957;28;20106;-54
2023/05/20 04:08:49;;;;;;;1.63;1.10;;;17.30;62.90;;;;;;10253279;28;20106;-55
2023/05/20 04:13:49;;;;;;;2.28;1.30;;;17.30;62.90;;;;;;10254773;28;20134;-54
2023/05/20 04:18:52;;;;;;;1.83;1.20;;;17.30;63.00;;;;;;10231589;28;20030;-55
2023/05/20 04:23:52;;;;;;;2.90;2.10;;;17.30;62.90;;;;;;10249109;28;20038;-55
2023/05/20 04:28:54;;;;;;;2.17;1.33;;;17.30;63.00;;;;;;10249046;29;20102;-54
2023/05/20 04:33:55;;;;;;;2.30;1.48;;;17.30;63.00;;;;;;10248520;29;20054;-56
2023/05/20 04:38:56;;;;;;;2.05;1.15;;;17.30;63.00;;;;;;10238355;28;20015;-56
2023/05/20 04:43:58;;;;;;;2.78;1.13;;;17.30;63.00;;;;;;10229742;29;20414;-55
2023/05/20 04:48:59;;;;;;;2.97;1.40;;;17.30;63.00;;;;;;10262822;28;20090;-56
2023/05/20 04:54:00;;;;;;;3.95;2.60;;;17.30;63.10;;;;;;10284937;28;20118;-55
2023/05/20 04:59:01;;;;;;;8.38;1.92;;;17.50;65.10;;;;;;10287967;28;20106;-53
2023/05/20 05:04:02;;;;;;;10.80;2.97;;;17.60;64.10;;;;;;10251730;28;20016;-55
2023/05/20 05:09:03;;;;;;;7.63;1.65;;;17.60;64.70;;;;;;10231505;29;20030;-56
2023/05/20 05:14:04;;;;;;;8.35;2.65;;;17.70;64.80;;;;;;10248289;28;20077;-54
2023/05/20 05:19:05;;;;;;;12.50;2.22;;;17.80;65.10;;;;;;10250522;28;20141;-55
2023/05/20 05:24:06;;;;;;;8.85;2.67;;;17.80;65.10;;;;;;10287777;28;20082;-55
2023/05/20 05:29:07;;;;;;;6.78;2.95;;;17.70;65.10;;;;;;10287399;28;20101;-53
2023/05/20 05:34:07;;;;;;;8.30;2.13;;;17.70;65.40;;;;;;10287228;28;20030;-54
2023/05/20 05:39:08;;;;;;;10.95;3.42;;;17.70;65.40;;;;;;10253514;28;20114;-56
2023/05/20 05:44:08;;;;;;;12.43;2.38;;;17.70;65.40;;;;;;10247115;28;20074;-54
2023/05/20 05:49:09;;;;;;;16.33;2.58;;;17.70;65.60;;;;;;10229172;29;20114;-54
2023/05/20 05:54:10;;;;;;;8.35;2.63;;;17.70;65.80;;;;;;10282455;28;20508;-56
2023/05/20 05:59:10;;;;;;;10.90;2.90;;;17.70;65.40;;;;;;10286545;28;20114;-56
2023/05/20 06:04:11;;;;;;;5.72;2.47;;;17.70;65.70;;;;;;10244208;28;20102;-54
2023/05/20 06:09:12;;;;;;;13.98;3.20;;;17.70;65.90;;;;;;10250220;28;20082;-54
2023/05/20 06:14:13;;;;;;;15.07;3.55;;;17.70;65.90;;;;;;10218525;28;20063;-49
2023/05/20 06:19:13;;;;;;;8.07;2.25;;;17.70;65.80;;;;;;10212360;28;20251;-56
2023/05/20 06:24:14;;;;;;;21.38;3.60;;;17.60;65.70;;;;;;10217507;28;20110;-54
2023/05/20 06:29:15;;;;;;;19.10;2.78;;;17.60;65.70;;;;;;10260126;28;20027;-55
2023/05/20 06:34:16;;;;;;;11.52;2.72;;;17.70;65.90;;;;;;10244888;28;20055;-56
2023/05/20 06:39:16;;;;;;;15.20;3.63;;;17.70;66.00;;;;;;10248936;28;20424;-53
2023/05/20 06:44:18;;;;;;;14.15;3.88;;;17.70;65.90;;;;;;10225157;28;20031;-52
2023/05/20 06:49:19;;;;;;;9.77;2.25;;;17.70;65.70;;;;;;10242247;28;20027;-53
2023/05/20 06:54:20;;;;;;;6.43;2.20;;;17.60;65.70;;;;;;10280414;28;20111;-53
2023/05/20 06:59:21;;;;;;;10.32;2.20;;;17.60;65.60;;;;;;10253240;28;20038;-54
2023/05/20 07:04:21;;;;;;;15.05;2.72;;;17.60;65.40;;;;;;10272319;28;20077;-54
2023/05/20 07:09:22;;;;;;;9.02;3.03;;;17.60;65.10;;;;;;10298928;28;20085;-56
2023/05/20 07:14:23;;;;;;;8.90;2.88;;;17.60;65.00;;;;;;10283746;28;20689;-54
2023/05/20 07:19:24;;;;;;;11.20;3.20;;;17.60;64.90;;;;;;10261879;28;20078;-54
2023/05/20 07:24:25;;;;;;;8.13;2.28;;;17.60;64.70;;;;;;10243198;28;20062;-54
2023/05/20 07:29:25;;;;;;;7.53;3.15;;;17.60;64.40;;;;;;10242385;28;20019;-52
2023/05/20 07:34:26;;;;;;;6.57;2.75;;;17.70;64.40;;;;;;10246576;28;20133;-53
2023/05/20 07:39:27;;;;;;;10.00;2.30;;;17.70;64.30;;;;;;10247882;28;20023;-52
2023/05/20 07:44:27;;;;;;;8.57;2.35;;;17.70;64.20;;;;;;10210137;28;20533;-54
2023/05/20 07:49:28;;;;;;;6.22;2.28;;;17.70;64.10;;;;;;10200217;29;20027;-54
2023/05/20 07:54:29;;;;;;;7.00;2.35;;;17.70;64.10;;;;;;10282553;28;20057;-53
2023/05/20 07:59:29;;;;;;;4.80;1.75;;;17.80;64.00;;;;;;10282258;28;20458;-54
2023/05/20 08:04:30;;;;;;;6.85;2.97;;;17.80;63.90;;;;;;10225121;29;20522;-52
2023/05/20 08:09:33;;;;;;;6.13;2.33;;;17.70;63.80;;;;;;10225765;28;20463;-54
2023/05/20 08:14:34;;;;;;;3.60;1.48;;;17.80;63.80;;;;;;10242259;28;20062;-53
2023/05/20 08:19:35;;;;;;;4.80;1.60;;;17.80;63.70;;;;;;10242381;28;20400;-54
2023/05/20 08:24:35;;;;;;;5.68;2.15;;;17.80;63.60;;;;;;10242795;28;20106;-54
2023/05/20 08:29:36;;;;;;;5.35;1.83;;;17.80;63.60;;;;;;10242224;28;20062;-54
2023/05/20 08:34:37;;;;;;;6.32;2.08;;;17.80;63.40;;;;;;10232059;28;20533;-54
2023/05/20 08:39:38;;;;;;;8.82;2.47;;;17.80;63.30;;;;;;10260213;28;20015;-52
2023/05/20 08:44:41;;;;;;;4.03;1.63;;;17.80;63.10;;;;;;10271686;28;20069;-55
2023/05/20 08:49:41;;;;;;;5.03;1.90;;;17.90;63.00;;;;;;10244537;28;20111;-56
2023/05/20 08:54:48;;;;;;;4.80;1.67;;;17.90;62.80;;;;;;10270725;28;20027;-57
2023/05/20 08:59:49;;;;;;;3.10;1.92;;;17.90;62.80;;;;;;10283424;28;20023;-56
2023/05/20 09:04:51;;;;;;;4.65;1.70;;;17.80;62.60;;;;;;10261740;28;20486;-55
2023/05/20 09:09:52;;;;;;;8.00;2.42;;;17.90;62.70;;;;;;10248246;29;20027;-53
2023/05/20 09:14:52;;;;;;;9.00;2.30;;;18.00;62.60;;;;;;10230521;28;20134;-53
2023/05/20 09:19:53;;;;;;;6.72;2.13;;;18.00;62.30;;;;;;10266627;28;20110;-55
2023/05/20 09:24:54;;;;;;;8.00;2.00;;;18.00;62.10;;;;;;10279730;28;20022;-55
2023/05/20 09:29:55;;;;;;;8.55;2.20;;;18.10;62.00;;;;;;10248359;29;20111;-54
2023/05/20 09:34:57;;;;;;;4.38;2.45;;;18.10;62.00;;;;;;10253778;28;20067;-55
2023/05/20 09:40:04;;;;;;;5.00;1.77;;;18.20;61.90;;;;;;10237050;28;20028;-53
2023/05/20 09:45:08;;;;;;;9.50;3.00;;;18.20;62.20;;;;;;10247147;28;20499;-48
2023/05/20 09:50:09;;;;;;;8.10;2.10;;;18.10;62.50;;;;;;10239544;28;20063;-54
2023/05/20 09:55:10;;;;;;;5.25;1.75;;;18.10;62.60;;;;;;10238767;29;20248;-54
2023/05/20 10:00:13;;;;;;;3.95;1.92;;;18.10;62.60;;;;;;10246575;28;20130;-54
2023/05/20 10:05:30;;;;;;;4.28;1.67;;;18.20;62.00;;;;;;10229146;29;20707;-55
2023/05/20 10:11:00;;;;;;;4.63;2.40;;;18.40;62.00;;;;;;10236407;28;20135;-56
2023/05/20 10:16:12;;;;;;;5.17;2.10;;;18.30;61.90;;;;;;10277552;28;20082;-56
2023/05/20 10:21:17;;;;;;;6.00;1.98;;;18.20;62.00;;;;;;10262584;28;20532;-50
2023/05/20 10:26:19;;;;;;;3.42;1.33;;;18.20;62.10;;;;;;10300042;28;20019;-44
2023/05/20 10:31:22;;;;;;;8.00;1.85;;;18.20;61.90;;;;;;10278161;28;20041;-53
2023/05/20 10:36:27;;;;;;;7.82;1.75;;;18.20;61.80;;;;;;10262861;28;20034;-51
2023/05/20 10:41:29;;;;;;;9.63;1.85;;;18.20;61.70;;;;;;10225314;28;20050;-51
2023/05/20 10:46:31;;;;;;;6.45;2.08;;;18.20;61.70;;;;;;10224343;29;20019;-53
2023/05/20 10:51:35;;;;;;;6.13;1.95;;;18.20;61.80;;;;;;10257397;28;20035;-51
2023/05/20 10:56:37;;;;;;;6.88;2.03;;;18.30;61.90;;;;;;10242864;29;20027;-53
2023/05/20 11:01:38;;;;;;;4.50;1.60;;;18.30;61.80;;;;;;10241304;28;20514;-52
2023/05/20 11:06:50;;;;;;;3.50;1.30;;;18.30;61.70;;;;;;10244329;29;20023;-50
2023/05/20 11:11:54;;;;;;;5.70;1.20;;;18.30;61.80;;;;;;10244286;29;20122;-53
2023/05/20 11:16:59;;;;;;;4.20;2.03;;;18.30;61.70;;;;;;10254901;28;20125;-50
2023/05/20 11:21:59;;;;;;;5.22;1.73;;;18.40;61.90;;;;;;10283417;28;20031;-48
2023/05/20 11:27:01;;;;;;;5.50;1.58;;;18.40;61.90;;;;;;10271058;28;20059;-52
2023/05/20 11:32:01;;;;;;;4.03;1.20;;;18.40;61.90;;;;;;10229140;28;20497;-53
2023/05/20 11:37:10;;;;;;;4.00;1.80;;;18.40;61.90;;;;;;10266950;28;20034;-52
2023/05/20 11:42:10;;;;;;;3.33;1.77;;;18.40;62.00;;;;;;10243674;29;20471;-53
2023/05/20 11:47:11;;;;;;;2.22;1.20;;;18.40;62.00;;;;;;10243160;28;20106;-52
2023/05/20 11:52:12;;;;;;;2.58;1.23;;;18.50;62.00;;;;;;10243261;29;20023;-53
2023/05/20 11:57:13;;;;;;;2.47;1.17;;;18.50;62.00;;;;;;10242370;29;20027;-51
2023/05/20 12:02:14;;;;;;;1.63;1.02;;;18.50;62.10;;;;;;10243604;28;20466;-52
2023/05/20 12:07:14;;;;;;;3.88;1.30;;;18.50;61.90;;;;;;10262651;28;20023;-53
2023/05/20 12:12:15;;;;;;;8.68;1.85;;;18.60;61.90;;;;;;10258834;28;20038;-54
2023/05/20 12:17:16;;;;;;;4.40;1.48;;;18.80;62.70;;;;;;10257564;28;20131;-55
2023/05/20 12:22:16;;;;;;;7.55;1.95;;;18.90;62.40;;;;;;10267312;28;20118;-47
2023/05/20 12:27:17;;;;;;;5.97;1.55;;;18.90;62.90;;;;;;10267206;28;20114;-54
2023/05/20 12:32:19;;;;;;;15.20;2.53;;;18.80;63.70;;;;;;10249421;28;20384;-54
2023/05/20 12:37:20;;;;;;;13.43;1.42;;;18.90;63.10;;;;;;10259818;28;20702;-54
2023/05/20 12:42:21;;;;;;;7.80;1.98;;;18.80;63.60;;;;;;10256631;28;20162;-54
2023/05/20 12:47:21;;;;;;;11.43;2.20;;;18.80;63.80;;;;;;10260334;28;20035;-54
2023/05/20 12:52:22;;;;;;;4.75;1.73;;;18.70;63.50;;;;;;10286574;28;20045;-53
2023/05/20 12:57:23;;;;;;;4.60;1.63;;;18.70;64.20;;;;;;10263373;28;20020;-53
2023/05/20 13:02:24;;;;;;;10.60;2.10;;;18.60;64.50;;;;;;10247763;29;20728;-54
2023/05/20 13:07:25;;;;;;;4.32;1.45;;;18.60;64.00;;;;;;10246278;28;20026;-52
2023/05/20 13:12:26;;;;;;;10.32;3.83;;;18.70;63.80;;;;;;10229018;28;20027;-54
2023/05/20 13:17:27;;;;;;;4.85;1.90;;;18.60;63.80;;;;;;10228858;29;21321;-51
2023/05/20 13:22:27;;;;;;;5.53;1.38;;;18.60;63.90;;;;;;10228729;29;20095;-49
2023/05/20 13:27:28;;;;;;;5.68;1.45;;;18.60;63.50;;;;;;10235935;29;20106;-51
2023/05/20 13:32:29;;;;;;;5.40;1.67;;;18.60;63.00;;;;;;10244084;29;20165;-50
2023/05/20 13:37:30;;;;;;;4.65;1.63;;;18.60;63.50;;;;;;10215266;28;20130;-47
2023/05/20 13:42:30;;;;;;;4.55;1.85;;;18.60;62.70;;;;;;10247074;28;20154;-51
2023/05/20 13:47:31;;;;;;;4.93;1.98;;;18.60;62.70;;;;;;10247491;29;20051;-52
2023/05/20 13:52:32;;;;;;;7.63;2.05;;;18.50;61.40;;;;;;10245916;29;20047;-51
2023/05/20 13:57:32;;;;;;;4.38;1.98;;;18.50;61.80;;;;;;10226057;28;20019;-48
2023/05/20 14:02:33;;;;;;;5.70;2.05;;;18.60;61.70;;;;;;10255961;28;20169;-52
2023/05/20 14:07:34;;;;;;;6.55;2.00;;;18.60;61.70;;;;;;10241929;28;20033;-53
2023/05/20 14:12:35;;;;;;;4.97;1.52;;;18.60;61.90;;;;;;10226394;29;20023;-53
2023/05/20 14:17:35;;;;;;;5.72;1.65;;;18.50;61.90;;;;;;10227921;29;20507;-52
2023/05/20 14:22:36;;;;;;;7.05;1.63;;;18.60;62.00;;;;;;10245916;29;20806;-52
2023/05/20 14:27:37;;;;;;;3.00;1.70;;;18.50;62.20;;;;;;10227935;28;20035;-51
2023/05/20 14:32:38;;;;;;;3.53;1.60;;;18.50;62.20;;;;;;10245439;28;20134;-52
2023/05/20 14:37:39;;;;;;;2.47;1.40;;;18.50;62.30;;;;;;10234559;28;20045;-52
2023/05/20 14:42:39;;;;;;;4.25;1.40;;;18.60;62.30;;;;;;10245492;29;20166;-52
2023/05/20 14:47:40;;;;;;;3.88;2.28;;;18.60;62.40;;;;;;10226833;29;20110;-53
2023/05/20 14:52:41;;;;;;;3.15;1.27;;;18.60;63.10;;;;;;10269698;28;20080;-53
2023/05/20 14:57:42;;;;;;;2.40;1.42;;;18.50;62.60;;;;;;10249816;28;20054;-49
2023/05/20 15:02:42;;;;;;;11.20;1.73;;;18.50;62.20;;;;;;10275329;28;20796;-51
2023/05/20 15:07:43;;;;;;;3.78;1.55;;;18.50;62.40;;;;;;10259786;28;20023;-54
2023/05/20 15:12:44;;;;;;;4.18;1.75;;;18.60;62.40;;;;;;10298923;28;20035;-52
2023/05/20 15:17:45;;;;;;;3.45;1.10;;;18.50;62.50;;;;;;10283893;28;20131;-52
2023/05/20 15:22:46;;;;;;;2.88;1.55;;;18.50;62.50;;;;;;10283402;28;20037;-54
2023/05/20 15:27:47;;;;;;;3.20;2.22;;;18.50;62.50;;;;;;10268930;28;20023;-54
2023/05/20 15:32:48;;;;;;;9.73;6.60;;;18.50;62.60;;;;;;10260904;28;20038;-54
2023/05/20 15:37:49;;;;;;;3.72;1.48;;;18.50;64.90;;;;;;10256423;28;20050;-55
2023/05/20 15:42:50;;;;;;;4.95;2.25;;;18.60;62.80;;;;;;10261486;28;20115;-54
2023/05/20 15:47:50;;;;;;;9.52;4.05;;;18.50;62.90;;;;;;10264865;28;20046;-55
2023/05/20 15:52:51;;;;;;;5.97;2.10;;;18.50;62.70;;;;;;10251908;28;20058;-52
2023/05/20 15:57:52;;;;;;;8.32;2.88;;;18.60;62.00;;;;;;10287848;28;20022;-53
2023/05/20 16:02:54;;;;;;;10.20;2.50;;;18.80;65.00;;;;;;10242324;28;20130;-50
2023/05/20 16:07:55;;;;;;;8.90;3.05;;;19.30;66.50;;;;;;10225744;29;20106;-54
2023/05/20 16:12:57;;;;;;;6.93;2.72;;;19.40;64.40;;;;;;10242968;29;20039;-54
2023/05/20 16:17:57;;;;;;;9.57;2.78;;;19.60;65.30;;;;;;10242762;28;20525;-54
2023/05/20 16:22:58;;;;;;;9.75;2.72;;;19.60;64.80;;;;;;10242916;29;20055;-55
2023/05/20 16:27:59;;;;;;;9.70;2.22;;;19.50;64.90;;;;;;10277372;28;20540;-55
2023/05/20 16:33:00;;;;;;;7.72;3.03;;;19.40;64.40;;;;;;10274460;28;20068;-49
2023/05/20 16:38:01;;;;;;;7.68;2.67;;;19.30;64.80;;;;;;10225327;29;20031;-51
2023/05/20 16:43:01;;;;;;;7.30;2.92;;;19.20;65.30;;;;;;10256051;28;20951;-49
2023/05/20 16:48:02;;;;;;;21.90;4.43;;;19.20;65.60;;;;;;10266124;28;20472;-49
2023/05/20 16:53:03;;;;;;;10.00;3.13;;;19.10;65.40;;;;;;10274667;28;20027;-50
2023/05/20 16:58:04;;;;;;;9.43;2.30;;;19.00;65.30;;;;;;10281997;28;20073;-49
2023/05/20 17:03:05;;;;;;;10.25;3.58;;;19.00;65.40;;;;;;10259689;28;20026;-51
2023/05/20 17:08:05;;;;;;;5.65;2.42;;;18.90;65.40;;;;;;10248507;28;20617;-50
2023/05/20 17:13:06;;;;;;;7.13;2.10;;;18.80;65.40;;;;;;10230954;28;20053;-53
2023/05/20 17:18:07;;;;;;;11.02;3.03;;;18.80;65.50;;;;;;10265793;28;20404;-53
2023/05/20 17:23:07;;;;;;;6.45;2.72;;;18.80;65.60;;;;;;10250556;28;20139;-54
2023/05/20 17:28:08;;;;;;;8.00;2.95;;;18.90;65.50;;;;;;10247683;29;20372;-54
2023/05/20 17:33:09;;;;;;;5.38;2.03;;;18.90;65.40;;;;;;10247510;29;20027;-50
2023/05/20 17:38:10;;;;;;;7.47;2.30;;;18.90;65.70;;;;;;10237783;28;20087;-54
2023/05/20 17:43:11;;;;;;;7.13;2.20;;;19.00;65.40;;;;;;10247264;29;20055;-55
2023/05/20 17:48:12;;;;;;;8.48;1.73;;;19.00;65.20;;;;;;10246780;28;20512;-54
2023/05/20 17:53:12;;;;;;;7.20;2.60;;;19.00;65.00;;;;;;10261589;28;20101;-52
2023/05/20 17:58:13;;;;;;;5.57;2.65;;;18.90;64.90;;;;;;10264729;28;20037;-53
2023/05/20 18:03:14;;;;;;;4.47;1.63;;;18.90;64.80;;;;;;10257167;28;20037;-55
2023/05/20 18:08:14;;;;;;;9.30;2.72;;;18.80;64.80;;;;;;10301397;28;20054;-55
2023/05/20 18:13:15;;;;;;;5.05;2.00;;;18.70;65.20;;;;;;10282880;28;20110;-55
2023/05/20 18:18:16;;;;;;;4.45;1.90;;;18.70;65.20;;;;;;10232547;28;20453;-53
2023/05/20 18:23:16;;;;;;;4.00;2.08;;;18.60;65.10;;;;;;10246512;28;20106;-52
2023/05/20 18:28:17;;;;;;;7.10;1.90;;;18.60;65.10;;;;;;10293979;28;20744;-54
2023/05/20 18:33:19;;;;;;;3.50;1.63;;;18.60;65.10;;;;;;10255879;28;20078;-55
2023/05/20 18:38:20;;;;;;;4.63;1.60;;;18.60;64.80;;;;;;10265079;28;20105;-53
2023/05/20 18:43:21;;;;;;;7.40;1.80;;;18.60;64.00;;;;;;10265033;28;20682;-55
2023/05/20 18:48:21;;;;;;;4.38;1.75;;;18.70;63.70;;;;;;10262132;28;21711;-56
2023/05/20 18:53:22;;;;;;;7.70;2.65;;;18.80;63.90;;;;;;10264232;28;20023;-55
2023/05/20 18:58:23;;;;;;;3.85;1.70;;;18.70;64.30;;;;;;10251700;28;20047;-55
2023/05/20 19:03:25;;;;;;;4.57;1.77;;;18.80;64.30;;;;;;10260650;28;20054;-54
2023/05/20 19:08:26;;;;;;;3.97;1.45;;;18.80;64.60;;;;;;10226471;28;20046;-54
2023/05/20 19:13:28;;;;;;;3.50;1.27;;;18.80;64.80;;;;;;10244401;28;20046;-55
2023/05/20 19:18:28;;;;;;;6.50;2.13;;;18.80;64.90;;;;;;10261944;28;20462;-55
2023/05/20 19:23:29;;;;;;;4.85;1.63;;;18.80;64.90;;;;;;10269750;28;20106;-55
2023/05/20 19:28:30;;;;;;;2.50;1.13;;;18.80;65.10;;;;;;10245610;28;20464;-54
2023/05/20 19:33:30;;;;;;;2.30;1.15;;;18.80;65.20;;;;;;10234519;28;20039;-54
2023/05/20 19:38:31;;;;;;;3.13;2.03;;;18.80;65.20;;;;;;10251791;28;20020;-52
2023/05/20 19:43:32;;;;;;;5.50;1.73;;;18.80;65.30;;;;;;10236789;28;20101;-56
2023/05/20 19:48:33;;;;;;;2.70;1.52;;;18.70;64.80;;;;;;10243537;28;20035;-53
2023/05/20 19:53:33;;;;;;;3.00;1.42;;;18.70;65.20;;;;;;10272779;28;20035;-53
2023/05/20 19:58:34;;;;;;;5.97;1.45;;;18.60;65.40;;;;;;10282187;28;20135;-54
2023/05/20 20:03:35;;;;;;;5.00;1.77;;;18.60;65.40;;;;;;10270346;28;20046;-55
2023/05/20 20:08:38;;;;;;;3.85;1.40;;;18.50;65.40;;;;;;10296787;28;20027;-54
2023/05/20 20:13:38;;;;;;;2.40;0.95;;;18.50;65.40;;;;;;10260584;28;20127;-55
2023/05/20 20:18:40;;;;;;;3.60;1.52;;;18.50;65.50;;;;;;10225603;28;20027;-54
2023/05/20 20:23:40;;;;;;;4.18;1.20;;;18.50;65.40;;;;;;10242496;29;20019;-53
2023/05/20 20:28:41;;;;;;;2.45;1.30;;;18.50;65.50;;;;;;10242257;29;20504;-53
2023/05/20 20:33:42;;;;;;;2.80;1.75;;;18.50;65.50;;;;;;10226386;28;20704;-53
2023/05/20 20:38:45;;;;;;;3.97;1.63;;;18.50;65.50;;;;;;10240278;28;20078;-53
2023/05/20 20:43:46;;;;;;;4.50;1.73;;;18.40;65.40;;;;;;10249808;28;20537;-53
2023/05/20 20:48:46;;;;;;;2.03;1.40;;;18.40;65.40;;;;;;10249198;29;20109;-53
2023/05/20 20:53:48;;;;;;;2.55;1.45;;;18.40;65.20;;;;;;10255528;28;20504;-53
2023/05/20 20:58:52;;;;;;;2.28;1.35;;;18.40;65.30;;;;;;10304040;28;20066;-53
2023/05/20 21:03:53;;;;;;;2.55;1.27;;;18.40;65.20;;;;;;10291157;28;20030;-54
2023/05/20 21:08:56;;;;;;;3.42;1.80;;;18.40;65.20;;;;;;10288686;28;20106;-55
2023/05/20 21:13:57;;;;;;;1.65;1.10;;;18.40;65.20;;;;;;10302760;28;20082;-53
2023/05/20 21:18:58;;;;;;;3.42;1.50;;;18.30;65.10;;;;;;10288414;28;20023;-54
2023/05/20 21:23:59;;;;;;;2.95;1.10;;;18.40;65.10;;;;;;10287971;28;20183;-54
2023/05/20 21:28:59;;;;;;;2.40;0.90;;;18.40;65.10;;;;;;10284077;28;20106;-54
2023/05/20 21:34:00;;;;;;;2.30;1.45;;;18.40;65.00;;;;;;10247707;28;20443;-53
2023/05/20 21:39:01;;;;;;;2.83;1.40;;;18.40;65.00;;;;;;10243735;28;20102;-54
2023/05/20 21:44:01;;;;;;;3.25;1.40;;;18.40;65.00;;;;;;10301954;28;20113;-55
2023/05/20 21:49:02;;;;;;;1.65;1.00;;;18.40;65.10;;;;;;10264084;28;20287;-53
2023/05/20 21:54:03;;;;;;;3.33;1.33;;;18.40;65.10;;;;;;10274700;28;20047;-54
2023/05/20 21:59:03;;;;;;;4.22;1.50;;;18.30;65.10;;;;;;10285388;28;20115;-53
2023/05/20 22:04:05;;;;;;;1.98;1.45;;;18.40;65.10;;;;;;10249480;28;20156;-54
2023/05/20 22:09:06;;;;;;;2.72;1.38;;;18.30;65.00;;;;;;10246248;28;20078;-54
2023/05/20 22:14:07;;;;;;;1.88;1.20;;;18.30;65.00;;;;;;10246068;29;20487;-55
2023/05/20 22:19:08;;;;;;;4.80;1.48;;;18.30;65.00;;;;;;10228900;29;20023;-54
2023/05/20 22:24:10;;;;;;;1.70;1.17;;;18.30;65.00;;;;;;10228862;28;20023;-55
2023/05/20 22:29:11;;;;;;;1.98;1.17;;;18.30;65.00;;;;;;10245588;28;20031;-55
2023/05/20 22:34:11;;;;;;;2.15;1.33;;;18.30;65.00;;;;;;10251410;28;20039;-54
2023/05/20 22:39:12;;;;;;;1.98;1.13;;;18.30;65.00;;;;;;10251869;28;20030;-55
2023/05/20 22:44:13;;;;;;;2.67;1.10;;;18.30;65.00;;;;;;10245163;28;20463;-53
2023/05/20 22:49:14;;;;;;;2.78;1.70;;;18.30;65.00;;;;;;10211664;28;20035;-53
2023/05/20 22:54:16;;;;;;;1.83;1.13;;;18.30;65.00;;;;;;10296922;28;20058;-54
2023/05/20 22:59:16;;;;;;;1.95;1.23;;;18.30;65.00;;;;;;10283699;28;20058;-53
2023/05/20 23:04:18;;;;;;;2.70;1.42;;;18.30;65.00;;;;;;10287110;28;20110;-54
2023/05/20 23:09:18;;;;;;;2.75;1.48;;;18.20;64.80;;;;;;10251168;28;20019;-55
2023/05/20 23:14:20;;;;;;;2.05;1.25;;;18.20;64.80;;;;;;10226677;28;20050;-53
2023/05/20 23:19:20;;;;;;;2.63;1.42;;;18.20;64.80;;;;;;10231678;28;20846;-54
2023/05/20 23:24:21;;;;;;;3.30;1.27;;;18.20;64.80;;;;;;10283488;28;20118;-54
2023/05/20 23:29:21;;;;;;;1.70;1.13;;;18.20;64.80;;;;;;10283448;28;20059;-54
2023/05/20 23:34:22;;;;;;;2.40;1.25;;;18.20;64.80;;;;;;10283407;28;20695;-55
2023/05/20 23:39:23;;;;;;;3.10;1.65;;;18.20;64.80;;;;;;10247592;28;20541;-55
2023/05/20 23:44:23;;;;;;;1.30;0.95;;;18.20;64.70;;;;;;10243084;28;20110;-53
2023/05/20 23:49:25;;;;;;;2.25;1.20;;;18.20;64.70;;;;;;10225688;28;20055;-53
2023/05/20 23:54:26;;;;;;;2.50;1.30;;;18.20;64.70;;;;;;10280751;28;20034;-53
2023/05/20 23:59:27;;;;;;;1.85;1.15;;;18.20;64.70;;;;;;10265412;28;20154;-54
